sensor_id;sensor_type;location;lat;lon;timestamp;P1;durP1;ratioP1;P2;durP2;ratioP2
54171;SDS011;40076;52.354;4.970;2023-07-13T00:02:35;17.98;;;3.67;;
54171;SDS011;40076;52.354;4.970;2023-07-13T00:05:01;19.60;;;4.13;;
54171;SDS011;40076;52.354;4.970;2023-07-13T00:10:51;18.73;;;4.25;;
54171;SDS011;40076;52.354;4.970;2023-07-13T00:13:19;16.83;;;3.75;;
54171;SDS011;40076;52.354;4.970;2023-07-13T00:15:45;19.10;;;4.07;;
54171;SDS011;40076;52.354;4.970;2023-07-13T00:18:11;19.83;;;3.67;;
54171;SDS011;40076;52.354;4.970;2023-07-13T00:20:37;14.15;;;3.55;;
54171;SDS011;40076;52.354;4.970;2023-07-13T00:23:03;16.13;;;4.30;;
54171;SDS011;40076;52.354;4.970;2023-07-13T00:25:28;16.02;;;3.65;;
54171;SDS011;40076;52.354;4.970;2023-07-13T00:27:54;17.83;;;4.57;;
54171;SDS011;40076;52.354;4.970;2023-07-13T00:30:20;17.75;;;4.38;;
54171;SDS011;40076;52.354;4.970;2023-07-13T00:32:46;18.70;;;3.95;;
54171;SDS011;40076;52.354;4.970;2023-07-13T00:35:12;17.95;;;3.97;;
54171;SDS011;40076;52.354;4.970;2023-07-13T00:37:39;25.83;;;4.18;;
54171;SDS011;40076;52.354;4.970;2023-07-13T00:40:04;16.60;;;3.55;;
54171;SDS011;40076;52.354;4.970;2023-07-13T00:42:31;20.27;;;3.70;;
54171;SDS011;40076;52.354;4.970;2023-07-13T00:47:37;21.30;;;4.55;;
54171;SDS011;40076;52.354;4.970;2023-07-13T00:50:08;20.52;;;4.65;;
54171;SDS011;40076;52.354;4.970;2023-07-13T00:52:37;24.80;;;4.35;;
54171;SDS011;40076;52.354;4.970;2023-07-13T00:55:05;20.90;;;4.78;;
54171;SDS011;40076;52.354;4.970;2023-07-13T00:57:32;20.75;;;4.43;;
54171;SDS011;40076;52.354;4.970;2023-07-13T00:59:58;18.45;;;4.15;;
54171;SDS011;40076;52.354;4.970;2023-07-13T01:02:35;20.70;;;4.22;;
54171;SDS011;40076;52.354;4.970;2023-07-13T01:05:10;20.30;;;4.40;;
54171;SDS011;40076;52.354;4.970;2023-07-13T01:07:38;17.73;;;5.55;;
54171;SDS011;40076;52.354;4.970;2023-07-13T01:10:03;13.65;;;3.88;;
54171;SDS011;40076;52.354;4.970;2023-07-13T01:12:29;19.13;;;3.88;;
54171;SDS011;40076;52.354;4.970;2023-07-13T01:14:59;22.38;;;4.57;;
54171;SDS011;40076;52.354;4.970;2023-07-13T01:17:26;15.80;;;3.63;;
54171;SDS011;40076;52.354;4.970;2023-07-13T01:19:53;15.55;;;3.53;;
54171;SDS011;40076;52.354;4.970;2023-07-13T01:22:20;15.27;;;3.45;;
54171;SDS011;40076;52.354;4.970;2023-07-13T01:27:49;17.75;;;2.85;;
54171;SDS011;40076;52.354;4.970;2023-07-13T01:30:15;12.63;;;2.53;;
54171;SDS011;40076;52.354;4.970;2023-07-13T01:32:40;11.90;;;2.55;;
54171;SDS011;40076;52.354;4.970;2023-07-13T01:35:07;8.75;;;2.42;;
54171;SDS011;40076;52.354;4.970;2023-07-13T01:37:33;10.52;;;3.10;;
54171;SDS011;40076;52.354;4.970;2023-07-13T01:40:05;6.75;;;1.77;;
54171;SDS011;40076;52.354;4.970;2023-07-13T01:42:31;7.97;;;1.50;;
54171;SDS011;40076;52.354;4.970;2023-07-13T01:44:57;8.82;;;1.88;;
54171;SDS011;40076;52.354;4.970;2023-07-13T01:47:22;12.23;;;2.22;;
54171;SDS011;40076;52.354;4.970;2023-07-13T01:49:48;5.32;;;1.45;;
54171;SDS011;40076;52.354;4.970;2023-07-13T01:52:15;13.10;;;1.77;;
54171;SDS011;40076;52.354;4.970;2023-07-13T01:54:41;8.25;;;1.73;;
54171;SDS011;40076;52.354;4.970;2023-07-13T01:57:06;9.60;;;1.98;;
54171;SDS011;40076;52.354;4.970;2023-07-13T01:59:32;6.28;;;1.42;;
54171;SDS011;40076;52.354;4.970;2023-07-13T02:01:58;12.65;;;1.98;;
54171;SDS011;40076;52.354;4.970;2023-07-13T02:04:24;12.77;;;2.58;;
54171;SDS011;40076;52.354;4.970;2023-07-13T02:06:49;4.53;;;1.30;;
54171;SDS011;40076;52.354;4.970;2023-07-13T02:09:15;7.20;;;1.40;;
54171;SDS011;40076;52.354;4.970;2023-07-13T02:11:40;5.50;;;1.40;;
54171;SDS011;40076;52.354;4.970;2023-07-13T02:14:05;9.95;;;1.73;;
54171;SDS011;40076;52.354;4.970;2023-07-13T02:16:31;7.72;;;1.80;;
54171;SDS011;40076;52.354;4.970;2023-07-13T02:18:56;7.93;;;1.55;;
54171;SDS011;40076;52.354;4.970;2023-07-13T02:21:23;8.57;;;1.55;;
54171;SDS011;40076;52.354;4.970;2023-07-13T02:23:49;8.70;;;1.70;;
54171;SDS011;40076;52.354;4.970;2023-07-13T02:26:15;8.20;;;1.60;;
54171;SDS011;40076;52.354;4.970;2023-07-13T02:28:41;9.13;;;1.73;;
54171;SDS011;40076;52.354;4.970;2023-07-13T02:31:10;5.05;;;1.55;;
54171;SDS011;40076;52.354;4.970;2023-07-13T02:33:37;7.53;;;1.65;;
54171;SDS011;40076;52.354;4.970;2023-07-13T02:36:02;9.18;;;1.75;;
54171;SDS011;40076;52.354;4.970;2023-07-13T02:38:30;8.48;;;2.00;;
54171;SDS011;40076;52.354;4.970;2023-07-13T02:40:58;12.20;;;1.95;;
54171;SDS011;40076;52.354;4.970;2023-07-13T02:43:24;9.63;;;2.03;;
54171;SDS011;40076;52.354;4.970;2023-07-13T02:45:50;8.68;;;1.83;;
54171;SDS011;40076;52.354;4.970;2023-07-13T02:48:16;7.43;;;1.90;;
54171;SDS011;40076;52.354;4.970;2023-07-13T02:50:42;8.35;;;1.70;;
54171;SDS011;40076;52.354;4.970;2023-07-13T02:53:09;6.05;;;1.83;;
54171;SDS011;40076;52.354;4.970;2023-07-13T02:55:35;11.63;;;1.83;;
54171;SDS011;40076;52.354;4.970;2023-07-13T02:58:00;14.55;;;2.08;;
54171;SDS011;40076;52.354;4.970;2023-07-13T03:00:26;6.35;;;2.30;;
54171;SDS011;40076;52.354;4.970;2023-07-13T03:05:42;7.43;;;1.77;;
54171;SDS011;40076;52.354;4.970;2023-07-13T03:10:40;10.68;;;2.05;;
54171;SDS011;40076;52.354;4.970;2023-07-13T03:13:05;8.05;;;1.65;;
54171;SDS011;40076;52.354;4.970;2023-07-13T03:15:31;8.52;;;1.60;;
54171;SDS011;40076;52.354;4.970;2023-07-13T03:17:57;8.10;;;1.88;;
54171;SDS011;40076;52.354;4.970;2023-07-13T03:20:22;11.07;;;1.92;;
54171;SDS011;40076;52.354;4.970;2023-07-13T03:22:48;6.13;;;1.77;;
54171;SDS011;40076;52.354;4.970;2023-07-13T03:25:13;6.78;;;1.50;;
54171;SDS011;40076;52.354;4.970;2023-07-13T03:27:39;6.63;;;1.60;;
54171;SDS011;40076;52.354;4.970;2023-07-13T03:30:05;9.70;;;1.80;;
54171;SDS011;40076;52.354;4.970;2023-07-13T03:32:31;7.38;;;1.80;;
54171;SDS011;40076;52.354;4.970;2023-07-13T03:34:57;7.40;;;1.80;;
54171;SDS011;40076;52.354;4.970;2023-07-13T03:37:22;5.47;;;1.48;;
54171;SDS011;40076;52.354;4.970;2023-07-13T03:39:48;8.70;;;1.73;;
54171;SDS011;40076;52.354;4.970;2023-07-13T03:42:14;7.63;;;1.83;;
54171;SDS011;40076;52.354;4.970;2023-07-13T03:44:40;4.07;;;1.55;;
54171;SDS011;40076;52.354;4.970;2023-07-13T03:47:06;8.57;;;1.65;;
54171;SDS011;40076;52.354;4.970;2023-07-13T03:49:33;9.35;;;1.83;;
54171;SDS011;40076;52.354;4.970;2023-07-13T03:51:59;8.25;;;1.60;;
54171;SDS011;40076;52.354;4.970;2023-07-13T03:54:25;7.00;;;1.75;;
54171;SDS011;40076;52.354;4.970;2023-07-13T03:56:51;9.50;;;2.05;;
54171;SDS011;40076;52.354;4.970;2023-07-13T03:59:17;8.23;;;1.67;;
54171;SDS011;40076;52.354;4.970;2023-07-13T04:01:43;5.47;;;1.52;;
54171;SDS011;40076;52.354;4.970;2023-07-13T04:04:09;9.75;;;2.25;;
54171;SDS011;40076;52.354;4.970;2023-07-13T04:06:35;5.70;;;2.33;;
54171;SDS011;40076;52.354;4.970;2023-07-13T04:09:01;10.23;;;2.10;;
54171;SDS011;40076;52.354;4.970;2023-07-13T04:11:30;7.90;;;2.13;;
54171;SDS011;40076;52.354;4.970;2023-07-13T04:13:56;9.05;;;2.50;;
54171;SDS011;40076;52.354;4.970;2023-07-13T04:16:22;7.25;;;1.73;;
54171;SDS011;40076;52.354;4.970;2023-07-13T04:18:48;6.30;;;1.80;;
54171;SDS011;40076;52.354;4.970;2023-07-13T04:21:14;11.20;;;2.17;;
54171;SDS011;40076;52.354;4.970;2023-07-13T04:23:40;7.28;;;1.80;;
54171;SDS011;40076;52.354;4.970;2023-07-13T04:26:06;10.05;;;2.00;;
54171;SDS011;40076;52.354;4.970;2023-07-13T04:28:32;6.93;;;1.90;;
54171;SDS011;40076;52.354;4.970;2023-07-13T04:30:58;8.95;;;2.38;;
54171;SDS011;40076;52.354;4.970;2023-07-13T04:33:25;6.13;;;1.70;;
54171;SDS011;40076;52.354;4.970;2023-07-13T04:35:52;7.40;;;1.70;;
54171;SDS011;40076;52.354;4.970;2023-07-13T04:38:21;7.72;;;2.38;;
54171;SDS011;40076;52.354;4.970;2023-07-13T04:40:54;8.10;;;2.58;;
54171;SDS011;40076;52.354;4.970;2023-07-13T04:43:24;9.55;;;2.55;;
54171;SDS011;40076;52.354;4.970;2023-07-13T04:45:51;11.05;;;2.50;;
54171;SDS011;40076;52.354;4.970;2023-07-13T04:48:17;9.05;;;2.17;;
54171;SDS011;40076;52.354;4.970;2023-07-13T04:50:43;8.50;;;2.20;;
54171;SDS011;40076;52.354;4.970;2023-07-13T04:53:09;11.68;;;2.42;;
54171;SDS011;40076;52.354;4.970;2023-07-13T04:55:35;10.65;;;2.88;;
54171;SDS011;40076;52.354;4.970;2023-07-13T04:58:01;13.23;;;3.50;;
54171;SDS011;40076;52.354;4.970;2023-07-13T05:00:27;11.48;;;3.03;;
54171;SDS011;40076;52.354;4.970;2023-07-13T05:02:55;12.15;;;2.70;;
54171;SDS011;40076;52.354;4.970;2023-07-13T05:05:22;10.88;;;2.63;;
54171;SDS011;40076;52.354;4.970;2023-07-13T05:11:00;10.52;;;3.35;;
54171;SDS011;40076;52.354;4.970;2023-07-13T05:13:27;11.57;;;2.78;;
54171;SDS011;40076;52.354;4.970;2023-07-13T05:15:56;17.33;;;4.00;;
54171;SDS011;40076;52.354;4.970;2023-07-13T05:18:23;16.75;;;3.00;;
54171;SDS011;40076;52.354;4.970;2023-07-13T05:21:01;10.20;;;2.83;;
54171;SDS011;40076;52.354;4.970;2023-07-13T05:23:29;12.55;;;3.08;;
54171;SDS011;40076;52.354;4.970;2023-07-13T05:25:57;15.70;;;3.80;;
54171;SDS011;40076;52.354;4.970;2023-07-13T05:28:23;14.05;;;3.58;;
54171;SDS011;40076;52.354;4.970;2023-07-13T05:31:07;14.15;;;3.47;;
54171;SDS011;40076;52.354;4.970;2023-07-13T05:33:36;13.30;;;3.80;;
54171;SDS011;40076;52.354;4.970;2023-07-13T05:36:04;15.57;;;3.53;;
54171;SDS011;40076;52.354;4.970;2023-07-13T05:38:30;16.98;;;4.55;;
54171;SDS011;40076;52.354;4.970;2023-07-13T05:41:09;18.90;;;4.80;;
54171;SDS011;40076;52.354;4.970;2023-07-13T05:43:47;22.35;;;4.57;;
54171;SDS011;40076;52.354;4.970;2023-07-13T05:46:12;18.52;;;4.60;;
54171;SDS011;40076;52.354;4.970;2023-07-13T05:51:07;24.17;;;4.68;;
54171;SDS011;40076;52.354;4.970;2023-07-13T05:53:33;16.00;;;3.63;;
54171;SDS011;40076;52.354;4.970;2023-07-13T05:56:00;16.08;;;4.38;;
54171;SDS011;40076;52.354;4.970;2023-07-13T05:58:25;18.75;;;4.00;;
54171;SDS011;40076;52.354;4.970;2023-07-13T06:00:58;13.93;;;3.90;;
54171;SDS011;40076;52.354;4.970;2023-07-13T06:03:27;12.20;;;3.67;;
54171;SDS011;40076;52.354;4.970;2023-07-13T06:05:53;18.60;;;4.22;;
54171;SDS011;40076;52.354;4.970;2023-07-13T06:08:18;19.58;;;3.58;;
54171;SDS011;40076;52.354;4.970;2023-07-13T06:10:44;18.00;;;4.03;;
54171;SDS011;40076;52.354;4.970;2023-07-13T06:13:16;16.55;;;4.32;;
54171;SDS011;40076;52.354;4.970;2023-07-13T06:15:41;13.68;;;4.15;;
54171;SDS011;40076;52.354;4.970;2023-07-13T06:23:48;11.73;;;3.65;;
54171;SDS011;40076;52.354;4.970;2023-07-13T06:26:16;17.02;;;3.65;;
54171;SDS011;40076;52.354;4.970;2023-07-13T06:28:44;15.35;;;3.10;;
54171;SDS011;40076;52.354;4.970;2023-07-13T06:31:13;12.13;;;3.38;;
54171;SDS011;40076;52.354;4.970;2023-07-13T06:33:48;17.02;;;4.05;;
54171;SDS011;40076;52.354;4.970;2023-07-13T06:36:14;10.10;;;3.10;;
54171;SDS011;40076;52.354;4.970;2023-07-13T06:38:43;10.65;;;3.03;;
54171;SDS011;40076;52.354;4.970;2023-07-13T06:41:11;11.88;;;3.17;;
54171;SDS011;40076;52.354;4.970;2023-07-13T06:43:39;10.65;;;2.65;;
54171;SDS011;40076;52.354;4.970;2023-07-13T06:46:05;7.90;;;3.50;;
54171;SDS011;40076;52.354;4.970;2023-07-13T06:48:33;9.77;;;3.03;;
54171;SDS011;40076;52.354;4.970;2023-07-13T06:50:59;16.42;;;3.17;;
54171;SDS011;40076;52.354;4.970;2023-07-13T06:53:27;8.80;;;2.70;;
54171;SDS011;40076;52.354;4.970;2023-07-13T06:55:53;12.25;;;3.15;;
54171;SDS011;40076;52.354;4.970;2023-07-13T06:58:18;13.75;;;3.05;;
54171;SDS011;40076;52.354;4.970;2023-07-13T07:00:44;10.70;;;2.88;;
54171;SDS011;40076;52.354;4.970;2023-07-13T07:03:10;12.65;;;2.70;;
54171;SDS011;40076;52.354;4.970;2023-07-13T07:05:35;8.38;;;2.90;;
54171;SDS011;40076;52.354;4.970;2023-07-13T07:08:06;12.15;;;2.83;;
54171;SDS011;40076;52.354;4.970;2023-07-13T07:10:34;9.88;;;3.30;;
54171;SDS011;40076;52.354;4.970;2023-07-13T07:13:05;11.65;;;3.00;;
54171;SDS011;40076;52.354;4.970;2023-07-13T07:15:30;9.02;;;2.92;;
54171;SDS011;40076;52.354;4.970;2023-07-13T07:17:56;9.40;;;2.72;;
54171;SDS011;40076;52.354;4.970;2023-07-13T07:20:22;12.50;;;2.80;;
54171;SDS011;40076;52.354;4.970;2023-07-13T07:22:47;9.50;;;2.65;;
54171;SDS011;40076;52.354;4.970;2023-07-13T07:25:16;10.05;;;2.70;;
54171;SDS011;40076;52.354;4.970;2023-07-13T07:27:41;9.60;;;3.25;;
54171;SDS011;40076;52.354;4.970;2023-07-13T07:30:14;12.63;;;2.55;;
54171;SDS011;40076;52.354;4.970;2023-07-13T07:32:41;9.25;;;2.35;;
54171;SDS011;40076;52.354;4.970;2023-07-13T07:35:07;10.38;;;2.60;;
54171;SDS011;40076;52.354;4.970;2023-07-13T07:37:35;7.82;;;2.40;;
54171;SDS011;40076;52.354;4.970;2023-07-13T07:40:01;12.23;;;3.33;;
54171;SDS011;40076;52.354;4.970;2023-07-13T07:42:27;8.45;;;2.50;;
54171;SDS011;40076;52.354;4.970;2023-07-13T07:44:52;11.82;;;3.10;;
54171;SDS011;40076;52.354;4.970;2023-07-13T07:47:20;9.10;;;3.13;;
54171;SDS011;40076;52.354;4.970;2023-07-13T07:49:48;7.40;;;2.60;;
54171;SDS011;40076;52.354;4.970;2023-07-13T07:52:13;8.63;;;2.33;;
54171;SDS011;40076;52.354;4.970;2023-07-13T07:54:39;9.05;;;2.88;;
54171;SDS011;40076;52.354;4.970;2023-07-13T07:57:04;11.35;;;2.58;;
54171;SDS011;40076;52.354;4.970;2023-07-13T07:59:30;8.38;;;2.80;;
54171;SDS011;40076;52.354;4.970;2023-07-13T08:01:55;9.57;;;2.95;;
54171;SDS011;40076;52.354;4.970;2023-07-13T08:04:21;9.02;;;2.75;;
54171;SDS011;40076;52.354;4.970;2023-07-13T08:06:46;8.90;;;3.03;;
54171;SDS011;40076;52.354;4.970;2023-07-13T08:09:12;9.73;;;2.63;;
54171;SDS011;40076;52.354;4.970;2023-07-13T08:11:37;8.02;;;2.20;;
54171;SDS011;40076;52.354;4.970;2023-07-13T08:14:05;9.82;;;2.45;;
54171;SDS011;40076;52.354;4.970;2023-07-13T08:16:30;7.68;;;2.33;;
54171;SDS011;40076;52.354;4.970;2023-07-13T08:18:57;8.50;;;2.42;;
54171;SDS011;40076;52.354;4.970;2023-07-13T08:21:23;10.70;;;2.88;;
54171;SDS011;40076;52.354;4.970;2023-07-13T08:23:48;9.73;;;2.50;;
54171;SDS011;40076;52.354;4.970;2023-07-13T08:26:14;8.27;;;2.40;;
54171;SDS011;40076;52.354;4.970;2023-07-13T08:28:40;9.38;;;2.60;;
54171;SDS011;40076;52.354;4.970;2023-07-13T08:31:08;9.38;;;2.60;;
54171;SDS011;40076;52.354;4.970;2023-07-13T08:33:35;13.13;;;3.05;;
54171;SDS011;40076;52.354;4.970;2023-07-13T08:36:09;9.20;;;2.63;;
54171;SDS011;40076;52.354;4.970;2023-07-13T08:38:37;7.38;;;2.50;;
54171;SDS011;40076;52.354;4.970;2023-07-13T08:41:09;7.68;;;2.35;;
54171;SDS011;40076;52.354;4.970;2023-07-13T08:43:37;9.38;;;2.30;;
54171;SDS011;40076;52.354;4.970;2023-07-13T08:46:12;8.63;;;2.35;;
54171;SDS011;40076;52.354;4.970;2023-07-13T08:48:42;10.07;;;2.67;;
54171;SDS011;40076;52.354;4.970;2023-07-13T08:51:26;9.80;;;2.50;;
54171;SDS011;40076;52.354;4.970;2023-07-13T08:54:24;7.35;;;2.20;;
54171;SDS011;40076;52.354;4.970;2023-07-13T08:56:53;12.77;;;2.88;;
54171;SDS011;40076;52.354;4.970;2023-07-13T08:59:19;6.47;;;2.38;;
54171;SDS011;40076;52.354;4.970;2023-07-13T09:01:53;9.52;;;2.50;;
54171;SDS011;40076;52.354;4.970;2023-07-13T09:04:36;8.38;;;2.35;;
54171;SDS011;40076;52.354;4.970;2023-07-13T09:09:45;8.25;;;2.33;;
54171;SDS011;40076;52.354;4.970;2023-07-13T09:12:31;6.75;;;2.13;;
54171;SDS011;40076;52.354;4.970;2023-07-13T09:15:21;5.63;;;1.90;;
54171;SDS011;40076;52.354;4.970;2023-07-13T09:17:57;6.57;;;2.35;;
54171;SDS011;40076;52.354;4.970;2023-07-13T09:20:32;7.88;;;2.60;;
54171;SDS011;40076;52.354;4.970;2023-07-13T09:23:03;6.50;;;2.25;;
54171;SDS011;40076;52.354;4.970;2023-07-13T09:25:33;7.53;;;2.03;;
54171;SDS011;40076;52.354;4.970;2023-07-13T09:33:21;7.95;;;2.25;;
54171;SDS011;40076;52.354;4.970;2023-07-13T09:35:47;8.65;;;2.10;;
54171;SDS011;40076;52.354;4.970;2023-07-13T09:38:14;8.40;;;2.10;;
54171;SDS011;40076;52.354;4.970;2023-07-13T09:40:44;6.72;;;2.30;;
54171;SDS011;40076;52.354;4.970;2023-07-13T09:43:14;5.55;;;2.30;;
54171;SDS011;40076;52.354;4.970;2023-07-13T09:45:42;5.75;;;2.28;;
54171;SDS011;40076;52.354;4.970;2023-07-13T09:48:11;8.35;;;2.28;;
54171;SDS011;40076;52.354;4.970;2023-07-13T09:50:41;6.85;;;2.65;;
54171;SDS011;40076;52.354;4.970;2023-07-13T09:53:18;7.85;;;2.38;;
54171;SDS011;40076;52.354;4.970;2023-07-13T09:55:45;7.07;;;2.42;;
54171;SDS011;40076;52.354;4.970;2023-07-13T09:58:16;9.10;;;2.78;;
54171;SDS011;40076;52.354;4.970;2023-07-13T10:00:54;9.05;;;2.33;;
54171;SDS011;40076;52.354;4.970;2023-07-13T10:03:20;8.63;;;2.60;;
54171;SDS011;40076;52.354;4.970;2023-07-13T10:05:48;7.18;;;2.50;;
54171;SDS011;40076;52.354;4.970;2023-07-13T10:08:36;6.13;;;2.13;;
54171;SDS011;40076;52.354;4.970;2023-07-13T10:11:20;8.55;;;2.35;;
54171;SDS011;40076;52.354;4.970;2023-07-13T10:16:25;7.28;;;2.55;;
54171;SDS011;40076;52.354;4.970;2023-07-13T10:18:56;9.45;;;2.20;;
54171;SDS011;40076;52.354;4.970;2023-07-13T10:21:27;8.60;;;2.40;;
54171;SDS011;40076;52.354;4.970;2023-07-13T10:24:00;5.75;;;2.13;;
54171;SDS011;40076;52.354;4.970;2023-07-13T10:26:31;7.90;;;3.10;;
54171;SDS011;40076;52.354;4.970;2023-07-13T10:29:03;9.98;;;2.45;;
54171;SDS011;40076;52.354;4.970;2023-07-13T10:31:38;7.32;;;2.10;;
54171;SDS011;40076;52.354;4.970;2023-07-13T10:34:04;10.30;;;2.47;;
54171;SDS011;40076;52.354;4.970;2023-07-13T10:36:45;7.07;;;2.22;;
54171;SDS011;40076;52.354;4.970;2023-07-13T10:39:19;8.10;;;2.63;;
54171;SDS011;40076;52.354;4.970;2023-07-13T10:41:50;9.55;;;2.60;;
54171;SDS011;40076;52.354;4.970;2023-07-13T10:46:54;9.43;;;2.40;;
54171;SDS011;40076;52.354;4.970;2023-07-13T10:49:23;6.55;;;2.20;;
54171;SDS011;40076;52.354;4.970;2023-07-13T10:51:51;5.13;;;2.20;;
54171;SDS011;40076;52.354;4.970;2023-07-13T10:54:19;7.65;;;2.58;;
54171;SDS011;40076;52.354;4.970;2023-07-13T10:57:06;9.48;;;2.55;;
54171;SDS011;40076;52.354;4.970;2023-07-13T10:59:41;5.90;;;2.13;;
54171;SDS011;40076;52.354;4.970;2023-07-13T11:02:31;8.10;;;1.95;;
54171;SDS011;40076;52.354;4.970;2023-07-13T11:04:56;8.82;;;2.72;;
54171;SDS011;40076;52.354;4.970;2023-07-13T11:07:24;5.85;;;2.28;;
54171;SDS011;40076;52.354;4.970;2023-07-13T11:09:53;10.68;;;2.65;;
54171;SDS011;40076;52.354;4.970;2023-07-13T11:20:19;8.85;;;2.30;;
54171;SDS011;40076;52.354;4.970;2023-07-13T11:22:51;6.38;;;2.65;;
54171;SDS011;40076;52.354;4.970;2023-07-13T11:25:32;7.07;;;2.65;;
54171;SDS011;40076;52.354;4.970;2023-07-13T11:30:38;8.55;;;2.33;;
54171;SDS011;40076;52.354;4.970;2023-07-13T11:33:20;6.82;;;2.33;;
54171;SDS011;40076;52.354;4.970;2023-07-13T11:40:53;9.82;;;2.47;;
54171;SDS011;40076;52.354;4.970;2023-07-13T11:43:20;7.63;;;2.30;;
54171;SDS011;40076;52.354;4.970;2023-07-13T11:45:48;7.43;;;1.92;;
54171;SDS011;40076;52.354;4.970;2023-07-13T11:48:18;8.10;;;2.30;;
54171;SDS011;40076;52.354;4.970;2023-07-13T11:50:50;7.75;;;2.35;;
54171;SDS011;40076;52.354;4.970;2023-07-13T11:53:18;8.45;;;2.55;;
54171;SDS011;40076;52.354;4.970;2023-07-13T11:55:44;5.68;;;1.98;;
54171;SDS011;40076;52.354;4.970;2023-07-13T11:58:11;7.30;;;2.15;;
54171;SDS011;40076;52.354;4.970;2023-07-13T12:00:42;4.50;;;1.92;;
54171;SDS011;40076;52.354;4.970;2023-07-13T12:03:07;5.63;;;2.10;;
54171;SDS011;40076;52.354;4.970;2023-07-13T12:05:34;7.60;;;2.03;;
54171;SDS011;40076;52.354;4.970;2023-07-13T12:07:59;7.57;;;2.50;;
54171;SDS011;40076;52.354;4.970;2023-07-13T12:10:34;5.30;;;2.10;;
54171;SDS011;40076;52.354;4.970;2023-07-13T12:13:03;7.88;;;2.25;;
54171;SDS011;40076;52.354;4.970;2023-07-13T12:15:45;7.50;;;2.03;;
54171;SDS011;40076;52.354;4.970;2023-07-13T12:18:23;6.68;;;2.55;;
54171;SDS011;40076;52.354;4.970;2023-07-13T12:20:55;8.50;;;2.55;;
54171;SDS011;40076;52.354;4.970;2023-07-13T12:23:25;7.35;;;2.58;;
54171;SDS011;40076;52.354;4.970;2023-07-13T12:25:54;6.53;;;2.13;;
54171;SDS011;40076;52.354;4.970;2023-07-13T12:28:21;7.88;;;2.03;;
54171;SDS011;40076;52.354;4.970;2023-07-13T12:30:59;9.48;;;2.40;;
54171;SDS011;40076;52.354;4.970;2023-07-13T12:33:28;12.00;;;2.50;;
54171;SDS011;40076;52.354;4.970;2023-07-13T12:35:54;7.65;;;2.70;;
54171;SDS011;40076;52.354;4.970;2023-07-13T12:38:21;7.20;;;2.42;;
54171;SDS011;40076;52.354;4.970;2023-07-13T12:40:49;8.55;;;3.10;;
54171;SDS011;40076;52.354;4.970;2023-07-13T12:43:17;8.45;;;2.60;;
54171;SDS011;40076;52.354;4.970;2023-07-13T12:46:00;6.15;;;2.42;;
54171;SDS011;40076;52.354;4.970;2023-07-13T12:48:27;6.60;;;2.67;;
54171;SDS011;40076;52.354;4.970;2023-07-13T12:50:54;7.60;;;2.53;;
54171;SDS011;40076;52.354;4.970;2023-07-13T12:53:22;5.50;;;2.35;;
54171;SDS011;40076;52.354;4.970;2023-07-13T12:55:57;5.88;;;2.28;;
54171;SDS011;40076;52.354;4.970;2023-07-13T13:00:54;7.80;;;2.83;;
54171;SDS011;40076;52.354;4.970;2023-07-13T13:03:24;6.13;;;2.10;;
54171;SDS011;40076;52.354;4.970;2023-07-13T13:06:24;8.70;;;3.05;;
54171;SDS011;40076;52.354;4.970;2023-07-13T13:08:53;7.68;;;2.53;;
54171;SDS011;40076;52.354;4.970;2023-07-13T13:11:21;5.68;;;2.50;;
54171;SDS011;40076;52.354;4.970;2023-07-13T13:13:48;9.05;;;2.50;;
54171;SDS011;40076;52.354;4.970;2023-07-13T13:18:54;6.28;;;2.63;;
54171;SDS011;40076;52.354;4.970;2023-07-13T13:21:22;9.77;;;2.70;;
54171;SDS011;40076;52.354;4.970;2023-07-13T13:23:49;11.27;;;2.25;;
54171;SDS011;40076;52.354;4.970;2023-07-13T13:26:16;8.00;;;2.70;;
54171;SDS011;40076;52.354;4.970;2023-07-13T13:28:48;8.13;;;2.58;;
54171;SDS011;40076;52.354;4.970;2023-07-13T13:31:14;8.13;;;2.60;;
54171;SDS011;40076;52.354;4.970;2023-07-13T13:33:41;9.68;;;2.88;;
54171;SDS011;40076;52.354;4.970;2023-07-13T13:36:13;6.93;;;2.40;;
54171;SDS011;40076;52.354;4.970;2023-07-13T13:38:44;9.43;;;2.80;;
54171;SDS011;40076;52.354;4.970;2023-07-13T13:41:10;6.82;;;2.38;;
54171;SDS011;40076;52.354;4.970;2023-07-13T13:43:38;8.50;;;2.38;;
54171;SDS011;40076;52.354;4.970;2023-07-13T13:46:05;6.55;;;2.50;;
54171;SDS011;40076;52.354;4.970;2023-07-13T13:48:40;5.75;;;2.15;;
54171;SDS011;40076;52.354;4.970;2023-07-13T13:51:27;6.00;;;2.10;;
54171;SDS011;40076;52.354;4.970;2023-07-13T13:53:52;7.45;;;2.40;;
54171;SDS011;40076;52.354;4.970;2023-07-13T13:56:18;6.65;;;2.33;;
54171;SDS011;40076;52.354;4.970;2023-07-13T13:58:44;7.05;;;2.33;;
54171;SDS011;40076;52.354;4.970;2023-07-13T14:01:18;7.88;;;2.28;;
54171;SDS011;40076;52.354;4.970;2023-07-13T14:03:45;7.45;;;2.30;;
54171;SDS011;40076;52.354;4.970;2023-07-13T14:06:11;8.05;;;2.22;;
54171;SDS011;40076;52.354;4.970;2023-07-13T14:08:38;8.13;;;3.03;;
54171;SDS011;40076;52.354;4.970;2023-07-13T14:11:04;6.35;;;2.50;;
54171;SDS011;40076;52.354;4.970;2023-07-13T14:13:38;7.32;;;3.20;;
54171;SDS011;40076;52.354;4.970;2023-07-13T14:16:12;5.53;;;2.67;;
54171;SDS011;40076;52.354;4.970;2023-07-13T14:18:42;6.35;;;2.40;;
54171;SDS011;40076;52.354;4.970;2023-07-13T14:21:13;6.57;;;2.25;;
54171;SDS011;40076;52.354;4.970;2023-07-13T14:23:44;7.28;;;2.67;;
54171;SDS011;40076;52.354;4.970;2023-07-13T14:26:21;5.40;;;2.53;;
54171;SDS011;40076;52.354;4.970;2023-07-13T14:28:53;5.72;;;2.30;;
54171;SDS011;40076;52.354;4.970;2023-07-13T14:31:20;4.85;;;2.45;;
54171;SDS011;40076;52.354;4.970;2023-07-13T14:33:47;5.35;;;2.03;;
54171;SDS011;40076;52.354;4.970;2023-07-13T14:36:23;9.48;;;2.42;;
54171;SDS011;40076;52.354;4.970;2023-07-13T14:38:52;7.60;;;2.20;;
54171;SDS011;40076;52.354;4.970;2023-07-13T14:41:18;8.52;;;3.33;;
54171;SDS011;40076;52.354;4.970;2023-07-13T14:43:44;6.90;;;2.17;;
54171;SDS011;40076;52.354;4.970;2023-07-13T14:46:28;6.85;;;2.35;;
54171;SDS011;40076;52.354;4.970;2023-07-13T14:49:01;5.03;;;2.35;;
54171;SDS011;40076;52.354;4.970;2023-07-13T14:51:35;5.07;;;2.00;;
54171;SDS011;40076;52.354;4.970;2023-07-13T14:54:04;6.20;;;1.88;;
54171;SDS011;40076;52.354;4.970;2023-07-13T14:56:31;7.07;;;2.30;;
54171;SDS011;40076;52.354;4.970;2023-07-13T14:58:56;5.10;;;2.20;;
54171;SDS011;40076;52.354;4.970;2023-07-13T15:01:22;5.68;;;2.10;;
54171;SDS011;40076;52.354;4.970;2023-07-13T15:03:49;5.38;;;2.03;;
54171;SDS011;40076;52.354;4.970;2023-07-13T15:06:17;3.90;;;1.83;;
54171;SDS011;40076;52.354;4.970;2023-07-13T15:08:44;5.78;;;2.08;;
54171;SDS011;40076;52.354;4.970;2023-07-13T15:11:09;9.27;;;2.55;;
54171;SDS011;40076;52.354;4.970;2023-07-13T15:13:43;5.72;;;2.15;;
54171;SDS011;40076;52.354;4.970;2023-07-13T15:16:24;7.47;;;3.08;;
54171;SDS011;40076;52.354;4.970;2023-07-13T15:18:51;5.75;;;2.30;;
54171;SDS011;40076;52.354;4.970;2023-07-13T15:21:19;5.38;;;2.17;;
54171;SDS011;40076;52.354;4.970;2023-07-13T15:26:18;6.82;;;2.30;;
54171;SDS011;40076;52.354;4.970;2023-07-13T15:28:45;6.35;;;2.30;;
54171;SDS011;40076;52.354;4.970;2023-07-13T15:31:19;6.72;;;2.10;;
54171;SDS011;40076;52.354;4.970;2023-07-13T15:33:49;5.28;;;2.13;;
54171;SDS011;40076;52.354;4.970;2023-07-13T15:36:25;5.22;;;2.00;;
54171;SDS011;40076;52.354;4.970;2023-07-13T15:38:52;5.53;;;2.45;;
54171;SDS011;40076;52.354;4.970;2023-07-13T15:41:21;5.07;;;2.03;;
54171;SDS011;40076;52.354;4.970;2023-07-13T15:44:07;7.40;;;2.28;;
54171;SDS011;40076;52.354;4.970;2023-07-13T15:46:53;6.93;;;2.05;;
54171;SDS011;40076;52.354;4.970;2023-07-13T15:49:22;6.63;;;2.00;;
54171;SDS011;40076;52.354;4.970;2023-07-13T15:51:48;6.75;;;2.30;;
54171;SDS011;40076;52.354;4.970;2023-07-13T15:54:14;7.15;;;2.20;;
54171;SDS011;40076;52.354;4.970;2023-07-13T15:56:41;5.25;;;1.77;;